createdAt,value
2022-08-29T00:00:08.604Z,1.70
2022-08-29T00:02:45.704Z,2.15
2022-08-29T00:05:12.170Z,1.95
2022-08-29T00:07:38.580Z,1.42
2022-08-29T00:10:06.619Z,2.00
2022-08-29T00:12:33.025Z,1.85
2022-08-29T00:14:59.470Z,2.28
2022-08-29T00:17:25.893Z,2.13
2022-08-29T00:19:52.355Z,2.03
2022-08-29T00:22:18.796Z,1.83
2022-08-29T00:24:45.228Z,1.95
2022-08-29T00:27:11.626Z,2.03
2022-08-29T00:29:38.100Z,1.90
2022-08-29T00:32:04.531Z,2.13
2022-08-29T00:34:30.952Z,2.58
2022-08-29T00:36:57.596Z,1.88
2022-08-29T00:39:24.334Z,2.47
2022-08-29T00:41:51.695Z,2.13
2022-08-29T00:44:18.132Z,2.28
2022-08-29T00:46:48.299Z,2.50
2022-08-29T00:49:25.795Z,1.95
2022-08-29T00:51:52.711Z,2.17
2022-08-29T00:54:19.573Z,2.08
2022-08-29T00:56:46.554Z,2.30
2022-08-29T00:59:27.702Z,2.15
2022-08-29T01:01:55.721Z,2.20
2022-08-29T01:04:23.660Z,2.65
2022-08-29T01:06:51.353Z,2.38
2022-08-29T01:09:17.894Z,2.30
2022-08-29T01:12:02.915Z,2.08
2022-08-29T01:14:29.443Z,2.90
2022-08-29T01:16:58.051Z,2.28
2022-08-29T01:19:37.456Z,2.65
2022-08-29T01:22:24.623Z,3.03
2022-08-29T01:24:52.879Z,2.75
2022-08-29T01:27:21.868Z,2.70
2022-08-29T01:29:48.319Z,2.88
2022-08-29T01:32:15.487Z,2.72
2022-08-29T01:34:42.176Z,2.70
2022-08-29T01:37:11.577Z,2.97
2022-08-29T01:39:41.348Z,2.80
2022-08-29T01:42:21.140Z,2.67
2022-08-29T01:44:49.560Z,2.95
2022-08-29T01:47:16.150Z,2.65
2022-08-29T01:49:45.207Z,3.85
2022-08-29T01:52:12.672Z,2.90
2022-08-29T01:54:43.494Z,2.65
2022-08-29T01:57:12.923Z,2.75
2022-08-29T01:59:40.134Z,2.60
2022-08-29T02:02:20.846Z,2.47
2022-08-29T02:04:48.308Z,3.03
2022-08-29T02:07:17.484Z,2.55
2022-08-29T02:09:45.570Z,3.05
2022-08-29T02:12:14.062Z,2.75
2022-08-29T02:14:40.773Z,2.80
2022-08-29T02:17:07.765Z,2.90
2022-08-29T02:19:34.866Z,2.40
2022-08-29T02:22:02.533Z,2.67
2022-08-29T02:24:30.052Z,2.85
2022-08-29T02:26:57.655Z,2.63
2022-08-29T02:29:25.475Z,2.95
2022-08-29T02:31:52.199Z,3.03
2022-08-29T02:34:19.011Z,3.10
2022-08-29T02:36:48.137Z,3.08
2022-08-29T02:39:16.305Z,3.58
2022-08-29T02:41:44.501Z,3.47
2022-08-29T02:44:11.702Z,3.97
2022-08-29T02:46:38.320Z,3.30
2022-08-29T02:49:05.163Z,4.15
2022-08-29T02:51:33.203Z,3.60
2022-08-29T02:54:00.496Z,3.35
2022-08-29T02:56:27.436Z,3.60
2022-08-29T02:58:53.911Z,3.35
2022-08-29T03:01:21.681Z,3.65
2022-08-29T03:03:50.207Z,3.40
2022-08-29T03:06:17.552Z,3.78
2022-08-29T03:08:44.017Z,3.30
2022-08-29T03:11:10.456Z,3.20
2022-08-29T03:13:37.747Z,3.30
2022-08-29T03:16:04.421Z,2.95
2022-08-29T03:18:30.983Z,3.15
2022-08-29T03:20:58.118Z,3.58
2022-08-29T03:23:24.584Z,3.30
2022-08-29T03:25:51.026Z,3.03
2022-08-29T03:28:17.523Z,3.67
2022-08-29T03:30:44.079Z,3.17
2022-08-29T03:33:12.015Z,3.50
2022-08-29T03:35:39.202Z,3.78
2022-08-29T03:38:05.846Z,3.20
2022-08-29T03:40:32.451Z,2.95
2022-08-29T03:42:58.930Z,3.92
2022-08-29T03:45:26.124Z,3.75
2022-08-29T03:47:53.516Z,3.08
2022-08-29T03:50:21.339Z,3.65
2022-08-29T03:52:48.236Z,3.97
2022-08-29T03:55:15.947Z,3.00
2022-08-29T03:57:43.019Z,3.53
2022-08-29T04:00:12.684Z,4.47
2022-08-29T04:02:40.134Z,4.18
2022-08-29T04:05:09.724Z,4.38
2022-08-29T04:07:41.316Z,4.68
2022-08-29T04:10:09.874Z,4.28
2022-08-29T04:12:37.222Z,4.22
2022-08-29T04:15:05.818Z,4.10
2022-08-29T04:17:33.035Z,5.50
2022-08-29T04:19:59.592Z,4.85
2022-08-29T04:22:26.019Z,3.63
2022-08-29T04:24:52.540Z,3.83
2022-08-29T04:27:19.026Z,3.85
2022-08-29T04:29:48.268Z,3.80
2022-08-29T04:32:16.294Z,3.42
2022-08-29T04:34:42.691Z,3.38
2022-08-29T04:37:09.319Z,4.30
2022-08-29T04:39:35.922Z,3.78
2022-08-29T04:42:02.369Z,4.07
2022-08-29T04:44:28.769Z,4.03
2022-08-29T04:46:55.183Z,3.67
2022-08-29T04:49:21.750Z,3.47
2022-08-29T04:51:48.152Z,3.92
2022-08-29T04:54:14.598Z,4.30
2022-08-29T04:56:44.311Z,5.38
2022-08-29T04:59:14.607Z,4.80
2022-08-29T05:01:42.406Z,4.00
2022-08-29T05:04:13.831Z,4.15
2022-08-29T05:06:41.180Z,4.20
2022-08-29T05:09:07.583Z,4.00
2022-08-29T05:11:34.387Z,4.10
2022-08-29T05:14:02.407Z,5.65
2022-08-29T05:16:30.139Z,4.78
2022-08-29T05:18:58.308Z,4.90
2022-08-29T05:21:35.105Z,4.72
2022-08-29T05:24:07.187Z,4.35
2022-08-29T05:26:36.762Z,5.05
2022-08-29T05:29:08.458Z,4.40
2022-08-29T05:37:58.523Z,4.70
2022-08-29T05:40:26.244Z,6.22
2022-08-29T05:42:53.285Z,4.88
2022-08-29T05:45:20.983Z,5.03
2022-08-29T05:47:47.459Z,5.65
2022-08-29T05:50:58.794Z,4.18
2022-08-29T05:53:25.706Z,4.95
2022-08-29T05:59:39.127Z,4.60
2022-08-29T06:02:06.990Z,5.07
2022-08-29T06:04:43.981Z,5.13
2022-08-29T06:07:22.073Z,4.88
2022-08-29T06:09:52.943Z,4.68
2022-08-29T06:12:19.644Z,4.88
2022-08-29T06:14:50.375Z,4.55
2022-08-29T06:17:19.274Z,4.30
2022-08-29T06:19:46.109Z,5.07
2022-08-29T06:22:26.146Z,5.22
2022-08-29T06:24:54.915Z,5.15
2022-08-29T06:27:45.892Z,5.10
2022-08-29T06:30:55.411Z,6.05
2022-08-29T06:33:21.994Z,5.32
2022-08-29T06:35:48.643Z,5.43
2022-08-29T06:38:15.599Z,5.30
2022-08-29T06:40:46.733Z,5.10
2022-08-29T06:43:13.249Z,5.80
2022-08-29T06:45:41.998Z,5.03
2022-08-29T06:48:08.647Z,5.45
2022-08-29T06:50:42.394Z,5.00
2022-08-29T06:53:26.857Z,5.80
2022-08-29T06:58:21.407Z,5.88
2022-08-29T07:01:29.608Z,5.95
2022-08-29T07:03:57.765Z,5.82
2022-08-29T07:07:05.924Z,6.57
2022-08-29T07:09:32.650Z,6.13
2022-08-29T07:11:59.138Z,6.20
2022-08-29T07:14:25.574Z,5.40
2022-08-29T07:16:52.379Z,5.50
2022-08-29T07:19:20.920Z,5.95
2022-08-29T07:22:31.005Z,6.80
2022-08-29T07:24:57.617Z,5.45
2022-08-29T07:27:24.121Z,5.68
2022-08-29T07:30:05.539Z,5.05
2022-08-29T07:32:31.967Z,6.37
2022-08-29T07:34:58.604Z,4.88
2022-08-29T07:37:36.337Z,4.47
2022-08-29T07:40:03.534Z,4.53
2022-08-29T07:42:30.188Z,4.10
2022-08-29T07:44:56.808Z,5.07
2022-08-29T07:47:26.569Z,4.63
2022-08-29T07:50:24.795Z,4.70
2022-08-29T07:52:52.463Z,4.65
2022-08-29T07:55:21.804Z,4.05
2022-08-29T07:57:51.627Z,4.03
2022-08-29T08:00:18.862Z,4.32
2022-08-29T08:02:45.312Z,4.68
2022-08-29T08:05:11.765Z,4.20
2022-08-29T08:07:54.376Z,4.10
2022-08-29T08:10:28.508Z,4.13
2022-08-29T08:13:09.713Z,4.13
2022-08-29T08:15:48.770Z,3.72
2022-08-29T08:18:16.368Z,3.20
2022-08-29T08:20:58.551Z,3.85
2022-08-29T08:23:25.498Z,3.60
2022-08-29T08:25:52.317Z,3.08
2022-08-29T08:28:18.890Z,3.40
2022-08-29T08:30:45.381Z,3.30
2022-08-29T08:33:12.031Z,4.03
2022-08-29T08:36:15.586Z,2.85
2022-08-29T08:38:42.073Z,3.50
2022-08-29T08:45:28.286Z,3.13
2022-08-29T08:48:21.117Z,2.85
2022-08-29T08:51:35.343Z,3.08
2022-08-29T08:54:45.445Z,2.40
2022-08-29T08:57:12.666Z,2.60
2022-08-29T08:59:45.359Z,2.65
2022-08-29T09:02:52.361Z,3.55
2022-08-29T09:05:59.986Z,2.55
2022-08-29T09:08:51.111Z,2.83
2022-08-29T09:11:59.044Z,2.78
2022-08-29T09:14:37.788Z,2.30
2022-08-29T09:17:06.837Z,3.85
2022-08-29T09:19:33.413Z,2.63
2022-08-29T09:22:07.601Z,1.98
2022-08-29T09:24:40.513Z,2.47
2022-08-29T09:27:08.948Z,2.60
2022-08-29T09:29:37.398Z,2.63
2022-08-29T09:32:22.753Z,2.85
2022-08-29T09:35:08.995Z,2.55
2022-08-29T09:37:36.348Z,2.95
2022-08-29T09:40:10.511Z,3.08
2022-08-29T09:42:40.745Z,2.42
2022-08-29T09:45:15.076Z,2.42
2022-08-29T09:47:41.702Z,2.40
2022-08-29T09:50:35.265Z,2.45
2022-08-29T09:53:05.745Z,2.25
2022-08-29T09:59:43.623Z,2.58
2022-08-29T10:02:27.269Z,2.20
2022-08-29T10:04:53.697Z,2.90
2022-08-29T10:07:24.206Z,2.30
2022-08-29T10:10:00.613Z,2.70
2022-08-29T10:12:51.892Z,3.08
2022-08-29T10:15:46.966Z,2.53
2022-08-29T10:18:42.899Z,2.70
2022-08-29T10:21:54.140Z,2.30
2022-08-29T10:24:26.959Z,2.53
2022-08-29T10:27:05.059Z,2.50
2022-08-29T10:29:51.425Z,2.40
2022-08-29T10:32:26.894Z,2.42
2022-08-29T10:35:17.333Z,2.30
2022-08-29T10:38:14.354Z,2.50
2022-08-29T10:40:48.530Z,2.50
2022-08-29T10:43:45.783Z,2.50
2022-08-29T10:46:44.309Z,2.13
2022-08-29T10:49:29.662Z,2.35
2022-08-29T10:52:14.709Z,2.58
2022-08-29T10:54:49.478Z,2.40
2022-08-29T10:57:39.528Z,2.72
2022-08-29T11:00:09.358Z,2.63
2022-08-29T11:03:08.327Z,2.47
2022-08-29T11:06:03.594Z,2.58
2022-08-29T11:08:38.311Z,3.15
2022-08-29T11:11:04.916Z,2.40
2022-08-29T11:13:34.409Z,3.33
2022-08-29T11:16:13.642Z,2.90
2022-08-29T11:19:03.207Z,2.95
2022-08-29T11:21:35.314Z,2.67
2022-08-29T11:24:04.178Z,3.33
2022-08-29T11:26:54.978Z,2.90
2022-08-29T11:29:41.840Z,3.75
2022-08-29T11:32:13.359Z,2.28
2022-08-29T11:35:07.691Z,3.50
2022-08-29T11:37:59.842Z,2.40
2022-08-29T11:43:39.723Z,2.50
2022-08-29T11:46:08.317Z,2.70
2022-08-29T11:48:41.026Z,3.42
2022-08-29T11:51:37.577Z,2.65
2022-08-29T11:54:28.958Z,2.55
2022-08-29T11:57:02.121Z,2.47
2022-08-29T11:59:44.554Z,2.13
2022-08-29T12:02:31.527Z,2.20
2022-08-29T12:05:30.131Z,2.67
2022-08-29T12:08:38.282Z,2.20
2022-08-29T12:11:05.319Z,2.58
2022-08-29T12:13:43.859Z,2.70
2022-08-29T12:16:12.340Z,2.20
2022-08-29T12:18:44.555Z,2.60
2022-08-29T12:21:32.514Z,2.60
2022-08-29T12:23:59.407Z,2.22
2022-08-29T12:26:42.956Z,2.25
2022-08-29T12:29:44.904Z,2.33
2022-08-29T12:32:29.667Z,2.72
2022-08-29T12:35:11.134Z,2.10
2022-08-29T12:37:46.668Z,2.20
2022-08-29T12:40:55.105Z,2.22
2022-08-29T12:43:24.635Z,2.15
2022-08-29T12:46:27.410Z,2.63
2022-08-29T12:49:15.378Z,2.10
2022-08-29T12:51:43.133Z,2.45
2022-08-29T12:54:47.743Z,2.53
2022-08-29T12:57:36.852Z,2.25
2022-08-29T13:00:08.915Z,2.53
2022-08-29T13:02:37.557Z,2.45
2022-08-29T13:05:18.046Z,2.20
2022-08-29T13:07:55.940Z,2.22
2022-08-29T13:10:23.142Z,2.05
2022-08-29T13:12:49.647Z,2.22
2022-08-29T13:15:21.149Z,2.10
2022-08-29T13:17:50.204Z,2.08
2022-08-29T13:20:38.689Z,1.95
2022-08-29T13:23:22.809Z,1.80
2022-08-29T13:25:54.164Z,2.65
2022-08-29T13:28:39.300Z,2.22
2022-08-29T13:31:30.489Z,2.30
2022-08-29T13:33:56.898Z,2.25
2022-08-29T13:36:38.548Z,1.58
2022-08-29T13:39:17.192Z,2.30
2022-08-29T13:42:01.957Z,2.60
2022-08-29T13:44:46.630Z,2.42
2022-08-29T13:47:19.371Z,2.60
2022-08-29T13:49:46.216Z,2.20
2022-08-29T13:52:13.101Z,2.63
2022-08-29T13:54:42.999Z,2.50
2022-08-29T13:57:15.073Z,2.40
2022-08-29T13:59:41.841Z,2.10
2022-08-29T14:02:10.057Z,2.22
2022-08-29T14:04:39.340Z,2.10
2022-08-29T14:07:18.842Z,2.00
2022-08-29T14:09:46.057Z,1.80
2022-08-29T14:12:14.165Z,2.83
2022-08-29T14:14:42.064Z,2.47
2022-08-29T14:17:08.727Z,2.47
2022-08-29T14:19:36.320Z,2.40
2022-08-29T14:22:03.605Z,1.80
2022-08-29T14:24:31.704Z,2.33
2022-08-29T14:27:01.568Z,2.08
2022-08-29T14:29:30.815Z,2.90
2022-08-29T14:31:58.186Z,2.10
2022-08-29T14:34:24.847Z,2.13
2022-08-29T14:36:57.291Z,2.10
2022-08-29T14:39:26.365Z,2.30
2022-08-29T14:41:53.830Z,1.98
2022-08-29T14:44:21.694Z,1.95
2022-08-29T14:46:48.226Z,2.00
2022-08-29T14:49:15.195Z,2.22
2022-08-29T14:51:42.036Z,2.60
2022-08-29T14:54:08.528Z,2.13
2022-08-29T14:56:48.048Z,2.00
2022-08-29T14:59:16.154Z,2.13
2022-08-29T15:01:43.063Z,2.13
2022-08-29T15:04:09.894Z,1.85
2022-08-29T15:06:38.013Z,2.08
2022-08-29T15:09:05.054Z,2.10
2022-08-29T15:11:31.567Z,2.10
2022-08-29T15:14:02.231Z,1.92
2022-08-29T15:16:31.852Z,2.30
2022-08-29T15:21:44.920Z,2.53
2022-08-29T15:24:11.397Z,1.92
2022-08-29T15:26:37.928Z,2.25
2022-08-29T15:29:04.419Z,2.05
2022-08-29T15:31:31.028Z,2.92
2022-08-29T15:37:44.838Z,2.10
2022-08-29T15:40:13.420Z,2.30
2022-08-29T15:42:40.131Z,1.95
2022-08-29T15:45:08.401Z,1.98
2022-08-29T15:47:35.408Z,1.85
2022-08-29T15:50:02.600Z,2.20
2022-08-29T15:52:31.070Z,1.80
2022-08-29T15:54:57.865Z,2.15
2022-08-29T15:57:24.601Z,2.15
2022-08-29T15:59:59.024Z,1.83
2022-08-29T16:02:27.540Z,1.95
2022-08-29T16:04:57.015Z,2.10
2022-08-29T16:07:28.849Z,2.03
2022-08-29T16:09:56.440Z,1.92
2022-08-29T16:12:22.915Z,1.70
2022-08-29T16:15:09.465Z,1.95
2022-08-29T16:17:36.289Z,1.90
2022-08-29T16:20:03.903Z,2.15
2022-08-29T16:22:30.512Z,2.35
2022-08-29T16:24:57.919Z,1.73
2022-08-29T16:27:24.520Z,2.28
2022-08-29T16:29:52.004Z,2.30
2022-08-29T16:32:18.929Z,1.98
2022-08-29T16:34:45.334Z,2.05
2022-08-29T16:37:11.958Z,1.70
2022-08-29T16:39:38.504Z,2.08
2022-08-29T16:42:05.161Z,2.47
2022-08-29T16:44:33.153Z,1.98
2022-08-29T16:46:59.879Z,1.88
2022-08-29T16:49:26.304Z,1.88
2022-08-29T16:52:11.318Z,2.42
2022-08-29T16:54:37.733Z,2.10
2022-08-29T16:57:04.566Z,1.95
2022-08-29T16:59:34.449Z,2.10
2022-08-29T17:02:03.780Z,1.90
2022-08-29T17:04:30.817Z,1.90
2022-08-29T17:06:57.945Z,2.30
2022-08-29T17:09:25.003Z,2.10
2022-08-29T17:11:53.727Z,1.98
2022-08-29T17:14:30.072Z,2.22
2022-08-29T17:16:56.803Z,2.03
2022-08-29T17:19:38.787Z,2.17
2022-08-29T17:24:31.713Z,1.88
2022-08-29T17:27:01.788Z,1.83
2022-08-29T17:29:28.355Z,2.17
2022-08-29T17:32:16.967Z,2.13
2022-08-29T17:34:46.201Z,1.90
2022-08-29T17:37:26.187Z,1.90
2022-08-29T17:40:02.268Z,1.88
2022-08-29T17:42:28.774Z,2.13
2022-08-29T17:44:55.869Z,2.13
2022-08-29T17:47:22.355Z,1.92
2022-08-29T17:49:48.823Z,2.05
2022-08-29T17:52:15.319Z,1.83
2022-08-29T17:54:41.860Z,2.53
2022-08-29T17:57:08.341Z,1.90
2022-08-29T17:59:36.569Z,1.92
2022-08-29T18:02:05.167Z,1.98
2022-08-29T18:04:32.100Z,2.33
2022-08-29T18:07:01.934Z,2.28
2022-08-29T18:09:31.062Z,1.90
2022-08-29T18:11:58.585Z,2.00
2022-08-29T18:14:32.257Z,2.10
2022-08-29T18:17:04.007Z,2.00
2022-08-29T18:19:30.525Z,2.15
2022-08-29T18:21:57.187Z,2.38
2022-08-29T18:24:23.898Z,2.00
2022-08-29T18:26:51.024Z,2.15
2022-08-29T18:29:17.793Z,2.00
2022-08-29T18:31:45.013Z,2.55
2022-08-29T18:34:12.791Z,2.65
2022-08-29T18:36:41.205Z,2.03
2022-08-29T18:39:09.298Z,2.17
2022-08-29T18:41:36.116Z,2.65
2022-08-29T18:44:02.955Z,2.13
2022-08-29T18:46:30.449Z,2.72
2022-08-29T18:48:57.297Z,2.45
2022-08-29T18:51:32.067Z,2.10
2022-08-29T18:53:58.531Z,2.17
2022-08-29T18:56:26.351Z,2.53
2022-08-29T18:58:58.535Z,2.20
2022-08-29T19:01:28.336Z,2.05
2022-08-29T19:04:00.294Z,2.17
2022-08-29T19:06:27.487Z,2.10
2022-08-29T19:08:56.416Z,2.25
2022-08-29T19:11:23.396Z,2.17
2022-08-29T19:14:00.111Z,2.50
2022-08-29T19:16:26.667Z,2.03
2022-08-29T19:18:53.192Z,3.35
2022-08-29T19:21:20.121Z,2.20
2022-08-29T19:23:51.360Z,2.50
2022-08-29T19:26:20.945Z,2.42
2022-08-29T19:28:53.167Z,2.28
2022-08-29T19:31:22.788Z,2.72
2022-08-29T19:34:00.737Z,2.35
2022-08-29T19:36:27.419Z,2.00
2022-08-29T19:38:53.976Z,2.40
2022-08-29T19:41:20.664Z,2.17
2022-08-29T19:43:47.216Z,2.67
2022-08-29T19:46:20.237Z,2.33
2022-08-29T19:48:51.082Z,2.88
2022-08-29T19:51:19.748Z,2.28
2022-08-29T19:53:47.851Z,2.78
2022-08-29T19:56:14.380Z,2.53
2022-08-29T19:58:41.017Z,2.30
2022-08-29T20:01:09.188Z,3.00
2022-08-29T20:03:40.708Z,2.63
2022-08-29T20:06:07.815Z,2.85
2022-08-29T20:08:41.625Z,2.70
2022-08-29T20:11:12.777Z,2.80
2022-08-29T20:13:39.914Z,2.97
2022-08-29T20:19:53.251Z,2.63
2022-08-29T20:22:20.556Z,2.60
2022-08-29T20:24:47.203Z,3.03
2022-08-29T20:27:14.113Z,3.15
2022-08-29T20:29:40.556Z,2.70
2022-08-29T20:32:07.340Z,2.67
2022-08-29T20:35:02.031Z,3.17
2022-08-29T20:37:28.489Z,2.33
2022-08-29T20:43:38.530Z,2.78
2022-08-29T20:46:07.909Z,2.40
2022-08-29T20:48:34.556Z,3.00
2022-08-29T20:51:02.320Z,3.22
2022-08-29T21:05:08.821Z,2.65
2022-08-29T21:07:35.274Z,3.20
2022-08-29T21:10:01.863Z,3.17
2022-08-29T21:12:28.696Z,3.20
2022-08-29T21:14:55.217Z,3.83
2022-08-29T21:17:21.724Z,3.00
2022-08-29T21:19:48.146Z,2.92
2022-08-29T21:22:15.126Z,3.00
2022-08-29T21:24:42.264Z,3.72
2022-08-29T21:27:09.387Z,3.50
2022-08-29T21:29:36.080Z,3.10
2022-08-29T21:32:02.833Z,3.50
2022-08-29T21:34:29.295Z,2.65
2022-08-29T21:36:55.734Z,3.20
2022-08-29T21:39:28.898Z,3.10
2022-08-29T21:41:55.988Z,3.38
2022-08-29T21:44:22.498Z,2.95
2022-08-29T21:46:49.051Z,3.60
2022-08-29T21:49:18.142Z,3.45
2022-08-29T21:51:46.034Z,3.45
2022-08-29T21:54:14.245Z,3.47
2022-08-29T21:56:41.035Z,3.35
2022-08-29T21:59:07.834Z,3.67
2022-08-29T22:01:38.750Z,3.92
2022-08-29T22:04:08.080Z,4.28
2022-08-29T22:06:39.762Z,3.85
2022-08-29T22:09:10.669Z,4.18
2022-08-29T22:11:38.304Z,4.07
2022-08-29T22:14:06.375Z,3.78
2022-08-29T22:16:33.489Z,3.95
2022-08-29T22:19:13.104Z,3.53
2022-08-29T22:21:41.440Z,4.13
2022-08-29T22:24:08.674Z,4.07
2022-08-29T22:26:35.696Z,4.20
2022-08-29T22:29:03.022Z,4.18
2022-08-29T22:31:31.200Z,4.00
2022-08-29T22:34:01.447Z,3.72
2022-08-29T22:36:31.937Z,3.35
2022-08-29T22:38:58.501Z,4.45
2022-08-29T22:41:25.389Z,4.38
2022-08-29T22:44:16.516Z,4.38
2022-08-29T22:46:44.645Z,3.90
2022-08-29T22:52:58.835Z,4.65
2022-08-29T22:57:51.666Z,3.80
2022-08-29T23:00:21.550Z,4.28
2022-08-29T23:02:48.693Z,4.20
2022-08-29T23:05:15.865Z,3.72
2022-08-29T23:07:42.501Z,3.47
2022-08-29T23:10:09.597Z,3.92
2022-08-29T23:12:36.518Z,3.92
2022-08-29T23:15:09.305Z,3.72
2022-08-29T23:17:35.855Z,3.63
2022-08-29T23:20:02.989Z,3.70
2022-08-29T23:22:31.328Z,3.83
2022-08-29T23:24:59.063Z,3.60
2022-08-29T23:27:29.960Z,3.67
2022-08-29T23:29:56.836Z,4.20
2022-08-29T23:32:23.270Z,4.03
2022-08-29T23:34:49.776Z,4.80
2022-08-29T23:37:16.253Z,3.75
2022-08-29T23:39:42.917Z,5.45
2022-08-29T23:42:09.393Z,4.20
2022-08-29T23:44:35.896Z,4.47
2022-08-29T23:50:42.795Z,3.70
2022-08-29T23:53:12.081Z,3.92
2022-08-29T23:55:40.233Z,3.90
2022-08-29T23:58:07.163Z,3.80
